createdAt,value
2023-04-09T00:01:04.248Z,99.90
2023-04-09T00:03:50.086Z,99.90
2023-04-09T00:09:13.222Z,99.90
2023-04-09T00:11:41.770Z,99.90
2023-04-09T00:14:15.128Z,99.90
2023-04-09T00:16:43.728Z,99.90
2023-04-09T00:19:14.023Z,99.90
2023-04-09T00:21:42.672Z,99.90
2023-04-09T00:24:25.250Z,99.90
2023-04-09T00:26:59.641Z,99.90
2023-04-09T00:29:28.230Z,99.90
2023-04-09T00:32:00.135Z,99.90
2023-04-09T00:34:29.536Z,99.90
2023-04-09T00:36:58.210Z,99.90
2023-04-09T00:39:31.826Z,99.90
2023-04-09T00:42:04.522Z,99.90
2023-04-09T00:44:36.573Z,99.90
2023-04-09T00:47:05.891Z,99.90
2023-04-09T00:49:36.045Z,99.90
2023-04-09T00:54:53.151Z,99.90
2023-04-09T00:57:22.017Z,99.90
2023-04-09T00:59:50.944Z,99.90
2023-04-09T01:02:20.264Z,99.90
2023-04-09T01:04:52.947Z,99.90
2023-04-09T01:07:36.225Z,99.90
2023-04-09T01:10:18.403Z,99.90
2023-04-09T01:13:08.945Z,99.90
2023-04-09T01:15:48.059Z,99.90
2023-04-09T01:21:43.211Z,99.90
2023-04-09T01:24:23.611Z,99.90
2023-04-09T01:27:08.071Z,99.90
2023-04-09T01:29:48.741Z,99.90
2023-04-09T01:32:20.955Z,99.90
2023-04-09T01:34:50.883Z,99.90
2023-04-09T01:37:25.062Z,99.90
2023-04-09T01:39:56.730Z,99.90
2023-04-09T01:42:32.031Z,99.90
2023-04-09T01:45:06.183Z,99.90
2023-04-09T01:47:42.061Z,99.90
2023-04-09T01:50:18.012Z,99.90
2023-04-09T01:52:53.699Z,99.90
2023-04-09T01:55:23.177Z,99.90
2023-04-09T01:57:52.330Z,99.90
2023-04-09T02:00:23.493Z,99.90
2023-04-09T02:03:00.526Z,99.90
2023-04-09T02:05:40.128Z,99.90
2023-04-09T02:08:12.320Z,99.90
2023-04-09T02:10:44.968Z,99.90
2023-04-09T02:13:18.706Z,99.90
2023-04-09T02:15:53.829Z,99.90
2023-04-09T02:18:29.534Z,99.90
2023-04-09T02:21:01.486Z,99.90
2023-04-09T02:23:32.636Z,99.90
2023-04-09T02:26:02.806Z,99.90
2023-04-09T02:28:31.894Z,99.90
2023-04-09T02:31:09.047Z,99.90
2023-04-09T02:33:50.589Z,99.90
2023-04-09T02:36:23.816Z,99.90
2023-04-09T02:38:55.705Z,99.90
2023-04-09T02:41:25.142Z,99.90
2023-04-09T02:43:53.895Z,99.90
2023-04-09T02:46:23.953Z,99.90
2023-04-09T02:48:52.939Z,99.90
2023-04-09T02:51:22.286Z,99.90
2023-04-09T02:53:54.404Z,99.90
2023-04-09T02:56:23.443Z,99.90
2023-04-09T02:58:54.478Z,99.90
2023-04-09T03:01:32.570Z,99.90
2023-04-09T03:04:12.470Z,99.90
2023-04-09T03:06:54.525Z,99.90
2023-04-09T03:09:26.202Z,99.90
2023-04-09T03:11:58.142Z,99.90
2023-04-09T03:14:36.410Z,99.90
2023-04-09T03:17:14.468Z,99.90
2023-04-09T03:19:46.627Z,99.90
2023-04-09T03:22:22.880Z,99.90
2023-04-09T03:24:56.700Z,99.90
2023-04-09T03:27:26.353Z,99.90
2023-04-09T03:30:05.594Z,99.90
2023-04-09T03:33:06.280Z,99.90
2023-04-09T03:35:36.369Z,99.90
2023-04-09T03:38:09.784Z,99.90
2023-04-09T03:40:46.054Z,99.90
2023-04-09T03:43:17.832Z,99.90
2023-04-09T03:45:46.766Z,99.90
2023-04-09T03:48:25.708Z,99.90
2023-04-09T03:50:57.626Z,99.90
2023-04-09T03:53:29.729Z,99.90
2023-04-09T03:56:01.283Z,99.90
2023-04-09T03:58:52.318Z,99.90
2023-04-09T04:01:24.589Z,99.90
2023-04-09T04:04:00.271Z,99.90
2023-04-09T04:06:29.310Z,99.90
2023-04-09T04:08:58.119Z,99.90
2023-04-09T04:11:32.750Z,99.90
2023-04-09T04:14:02.491Z,99.90
2023-04-09T04:16:33.182Z,99.90
2023-04-09T04:19:05.837Z,99.90
2023-04-09T04:21:40.421Z,99.90
2023-04-09T04:24:09.411Z,99.90
2023-04-09T04:26:41.516Z,99.90
2023-04-09T04:29:10.089Z,99.90
2023-04-09T04:35:12.647Z,99.90
2023-04-09T04:38:09.755Z,99.90
2023-04-09T04:44:12.685Z,99.90
2023-04-09T04:46:50.272Z,99.90
2023-04-09T04:49:25.963Z,99.90
2023-04-09T04:51:54.641Z,99.90
2023-04-09T04:54:27.729Z,99.90
2023-04-09T04:56:58.952Z,99.90
2023-04-09T05:02:29.825Z,99.90
2023-04-09T05:05:06.895Z,99.90
2023-04-09T05:07:44.888Z,99.90
2023-04-09T05:10:22.551Z,99.90
2023-04-09T05:12:53.801Z,99.90
2023-04-09T05:15:24.551Z,99.90
2023-04-09T05:17:56.015Z,99.90
2023-04-09T05:20:27.851Z,99.90
2023-04-09T05:22:57.362Z,99.90
2023-04-09T05:25:44.636Z,99.90
2023-04-09T05:28:17.212Z,99.90
2023-04-09T05:30:51.448Z,99.90
2023-04-09T05:33:26.541Z,99.90
2023-04-09T05:36:06.724Z,99.90
2023-04-09T05:38:35.719Z,99.90
2023-04-09T05:41:09.897Z,99.90
2023-04-09T05:43:43.500Z,99.90
2023-04-09T05:46:15.477Z,99.90
2023-04-09T05:48:45.627Z,99.90
2023-04-09T05:51:15.691Z,99.90
2023-04-09T05:53:47.367Z,99.90
2023-04-09T05:56:17.480Z,99.90
2023-04-09T05:58:46.076Z,99.90
2023-04-09T06:01:14.439Z,99.90
2023-04-09T06:03:43.038Z,99.90
2023-04-09T06:06:11.383Z,99.90
2023-04-09T06:08:39.829Z,99.90
2023-04-09T06:11:10.585Z,99.90
2023-04-09T06:13:40.589Z,99.90
2023-04-09T06:16:10.271Z,99.90
2023-04-09T06:18:38.783Z,99.90
2023-04-09T06:21:08.304Z,99.90
2023-04-09T06:23:37.708Z,99.90
2023-04-09T06:26:06.465Z,99.90
2023-04-09T06:28:37.332Z,99.90
2023-04-09T06:31:07.320Z,99.10
2023-04-09T06:33:35.604Z,92.10
2023-04-09T06:36:03.865Z,89.50
2023-04-09T06:38:35.486Z,96.00
2023-04-09T06:41:03.725Z,99.20
2023-04-09T06:43:32.005Z,99.90
2023-04-09T06:46:07.880Z,99.90
2023-04-09T06:48:36.293Z,99.90
2023-04-09T06:51:04.878Z,99.90
2023-04-09T06:53:33.270Z,99.90
2023-04-09T06:56:04.990Z,99.90
2023-04-09T06:58:33.393Z,99.90
2023-04-09T07:01:02.251Z,99.90
2023-04-09T07:03:32.381Z,99.90
2023-04-09T07:06:00.809Z,99.90
2023-04-09T07:08:29.250Z,99.90
2023-04-09T07:10:57.495Z,99.90
2023-04-09T07:13:25.906Z,99.90
2023-04-09T07:15:54.514Z,99.90
2023-04-09T07:18:22.884Z,99.90
2023-04-09T07:20:53.872Z,99.90
2023-04-09T07:23:22.927Z,99.90
2023-04-09T07:25:51.697Z,99.90
2023-04-09T07:28:20.161Z,99.90
2023-04-09T07:30:48.481Z,99.90
2023-04-09T07:33:16.834Z,99.90
2023-04-09T07:35:45.770Z,99.90
2023-04-09T07:38:16.356Z,99.90
2023-04-09T07:40:44.641Z,99.90
2023-04-09T07:43:12.899Z,99.90
2023-04-09T07:45:41.233Z,99.90
2023-04-09T07:48:10.474Z,99.90
2023-04-09T07:50:39.135Z,99.90
2023-04-09T07:53:07.390Z,99.90
2023-04-09T07:55:37.070Z,99.90
2023-04-09T07:58:06.004Z,99.90
2023-04-09T08:00:34.231Z,99.90
2023-04-09T08:03:03.904Z,99.90
2023-04-09T08:05:32.618Z,99.90
2023-04-09T08:08:01.401Z,99.90
2023-04-09T08:10:29.707Z,99.90
2023-04-09T08:12:59.466Z,98.50
2023-04-09T08:15:27.755Z,99.00
2023-04-09T08:17:56.335Z,99.90
2023-04-09T08:20:24.887Z,99.90
2023-04-09T08:22:53.272Z,99.90
2023-04-09T08:25:21.656Z,99.90
2023-04-09T08:27:49.941Z,99.90
2023-04-09T08:30:19.890Z,99.90
2023-04-09T08:32:48.611Z,99.90
2023-04-09T08:35:17.233Z,99.90
2023-04-09T08:37:45.647Z,99.90
2023-04-09T08:40:14.433Z,99.90
2023-04-09T08:42:45.927Z,99.90
2023-04-09T08:45:14.686Z,99.90
2023-04-09T08:47:48.959Z,99.90
2023-04-09T08:50:17.456Z,98.20
2023-04-09T08:52:48.228Z,91.90
2023-04-09T08:55:16.515Z,97.40
2023-04-09T08:57:45.098Z,99.80
2023-04-09T09:00:14.348Z,97.30
2023-04-09T09:03:03.453Z,98.20
2023-04-09T09:05:39.526Z,94.60
2023-04-09T09:08:10.391Z,99.20
2023-04-09T09:10:39.951Z,99.50
2023-04-09T09:13:28.272Z,99.90
2023-04-09T09:16:14.059Z,99.90
2023-04-09T09:18:45.328Z,99.90
2023-04-09T09:21:14.350Z,99.20
2023-04-09T09:23:43.104Z,96.50
2023-04-09T09:26:16.586Z,90.90
2023-04-09T09:28:45.358Z,90.60
2023-04-09T09:31:14.062Z,91.10
2023-04-09T09:33:44.285Z,92.50
2023-04-09T09:36:13.048Z,94.90
2023-04-09T09:38:55.666Z,99.80
2023-04-09T09:41:24.906Z,99.90
2023-04-09T09:43:56.933Z,99.90
2023-04-09T09:46:27.670Z,99.90
2023-04-09T09:49:00.905Z,99.90
2023-04-09T09:51:29.708Z,96.60
2023-04-09T09:53:58.504Z,94.50
2023-04-09T09:56:36.183Z,90.60
2023-04-09T09:59:09.026Z,91.50
2023-04-09T10:01:38.663Z,79.30
2023-04-09T10:04:13.613Z,71.10
2023-04-09T10:06:45.427Z,71.30
2023-04-09T10:09:14.631Z,66.10
2023-04-09T10:11:45.659Z,62.20
2023-04-09T10:14:14.844Z,64.30
2023-04-09T10:16:44.070Z,61.00
2023-04-09T10:19:15.202Z,62.80
2023-04-09T10:21:49.020Z,60.00
2023-04-09T10:24:18.220Z,59.10
2023-04-09T10:26:46.966Z,62.10
2023-04-09T10:29:16.673Z,66.50
2023-04-09T10:31:50.005Z,66.70
2023-04-09T10:34:24.838Z,74.50
2023-04-09T10:36:54.784Z,73.80
2023-04-09T10:39:27.001Z,67.80
2023-04-09T10:41:57.265Z,68.20
2023-04-09T10:44:27.411Z,67.60
2023-04-09T10:46:56.357Z,62.10
2023-04-09T10:49:27.396Z,65.40
2023-04-09T10:52:02.677Z,63.50
2023-04-09T10:54:46.047Z,67.60
2023-04-09T10:57:19.496Z,65.60
2023-04-09T10:59:49.700Z,66.70
2023-04-09T11:02:59.531Z,70.50
2023-04-09T11:05:33.866Z,72.70
2023-04-09T11:08:07.370Z,69.00
2023-04-09T11:10:38.751Z,71.20
2023-04-09T11:13:07.123Z,78.90
2023-04-09T11:15:37.805Z,73.40
2023-04-09T11:18:09.665Z,72.60
2023-04-09T11:20:40.300Z,68.10
2023-04-09T11:23:08.827Z,71.80
2023-04-09T11:25:37.202Z,73.30
2023-04-09T11:28:06.751Z,75.30
2023-04-09T11:30:35.753Z,77.40
2023-04-09T11:33:04.341Z,74.70
2023-04-09T11:35:36.163Z,79.80
2023-04-09T11:38:09.567Z,83.90
2023-04-09T11:40:43.526Z,83.50
2023-04-09T11:43:11.905Z,83.50
2023-04-09T11:45:40.288Z,80.30
2023-04-09T11:48:08.976Z,80.70
2023-04-09T11:50:37.999Z,73.00
2023-04-09T11:53:22.043Z,72.40
2023-04-09T11:55:52.574Z,75.30
2023-04-09T11:58:24.113Z,70.90
2023-04-09T12:00:55.181Z,72.00
2023-04-09T12:03:30.904Z,74.50
2023-04-09T12:06:02.690Z,76.00
2023-04-09T12:08:34.597Z,79.10
2023-04-09T12:11:10.916Z,80.30
2023-04-09T12:13:43.230Z,79.20
2023-04-09T12:16:12.176Z,75.10
2023-04-09T12:18:41.251Z,77.50
2023-04-09T12:21:09.472Z,78.40
2023-04-09T12:23:39.231Z,75.20
2023-04-09T12:26:07.748Z,76.70
2023-04-09T12:28:36.024Z,74.00
2023-04-09T12:31:04.340Z,70.70
2023-04-09T12:33:33.122Z,70.10
2023-04-09T12:36:01.613Z,73.10
2023-04-09T12:38:29.980Z,74.60
2023-04-09T12:41:00.066Z,76.10
2023-04-09T12:43:28.385Z,76.30
2023-04-09T12:45:57.147Z,78.60
2023-04-09T12:48:25.742Z,79.60
2023-04-09T12:50:54.068Z,79.50
2023-04-09T12:53:22.546Z,77.80
2023-04-09T12:55:50.981Z,73.60
2023-04-09T12:58:20.875Z,74.80
2023-04-09T13:00:49.449Z,72.60
2023-04-09T13:03:17.896Z,75.80
2023-04-09T13:05:46.333Z,69.40
2023-04-09T13:08:14.569Z,66.90
2023-04-09T13:10:43.128Z,69.90
2023-04-09T13:13:13.097Z,77.70
2023-04-09T13:15:45.106Z,77.20
2023-04-09T13:18:14.410Z,78.60
2023-04-09T13:20:42.733Z,75.10
2023-04-09T13:23:10.946Z,74.50
2023-04-09T13:25:39.203Z,71.90
2023-04-09T13:28:08.517Z,67.00
2023-04-09T13:30:36.914Z,60.60
2023-04-09T13:33:06.703Z,59.30
2023-04-09T13:35:35.036Z,60.10
2023-04-09T13:38:03.445Z,63.90
2023-04-09T13:40:31.970Z,69.20
2023-04-09T13:43:00.295Z,70.40
2023-04-09T13:45:28.728Z,73.10
2023-04-09T13:47:57.026Z,74.00
2023-04-09T13:50:27.010Z,76.50
2023-04-09T13:52:55.243Z,75.00
2023-04-09T13:55:23.582Z,75.90
2023-04-09T13:57:51.858Z,76.60
2023-04-09T14:00:20.910Z,74.60
2023-04-09T14:02:49.340Z,72.90
2023-04-09T14:05:17.702Z,72.00
2023-04-09T14:07:47.421Z,75.40
2023-04-09T14:10:15.933Z,72.00
2023-04-09T14:12:44.200Z,69.00
2023-04-09T14:15:12.670Z,68.30
2023-04-09T14:17:41.430Z,65.50
2023-04-09T14:20:10.489Z,62.40
2023-04-09T14:22:38.952Z,64.00
2023-04-09T14:25:09.638Z,65.70
2023-04-09T14:27:39.013Z,64.40
2023-04-09T14:30:08.634Z,69.30
2023-04-09T14:32:36.885Z,73.70
2023-04-09T14:35:05.694Z,76.20
2023-04-09T14:37:33.979Z,76.80
2023-04-09T14:40:02.368Z,75.20
2023-04-09T14:42:32.175Z,75.20
2023-04-09T14:45:00.541Z,78.30
2023-04-09T14:47:28.821Z,79.50
2023-04-09T14:49:57.101Z,81.30
2023-04-09T14:52:25.950Z,80.90
2023-04-09T14:54:54.263Z,79.50
2023-04-09T14:57:22.462Z,82.20
2023-04-09T14:59:52.269Z,79.90
2023-04-09T15:02:20.795Z,81.00
2023-04-09T15:04:49.410Z,83.50
2023-04-09T15:07:17.725Z,88.70
2023-04-09T15:09:46.235Z,91.10
2023-04-09T15:12:14.429Z,89.90
2023-04-09T15:14:42.727Z,91.60
2023-04-09T15:17:12.563Z,93.00
2023-04-09T15:19:40.819Z,95.00
2023-04-09T15:22:12.309Z,98.50
2023-04-09T15:24:40.919Z,96.10
2023-04-09T15:27:09.297Z,99.90
2023-04-09T15:29:37.654Z,97.90
2023-04-09T15:32:06.188Z,97.70
2023-04-09T15:34:38.725Z,99.80
2023-04-09T15:37:07.147Z,99.30
2023-04-09T15:39:35.577Z,99.90
2023-04-09T15:42:03.911Z,99.90
2023-04-09T15:44:32.167Z,99.90
2023-04-09T15:47:00.382Z,99.90
2023-04-09T15:49:28.588Z,99.90
2023-04-09T15:51:58.212Z,99.90
2023-04-09T15:54:26.477Z,99.90
2023-04-09T15:56:54.673Z,99.90
2023-04-09T15:59:23.436Z,99.90
2023-04-09T16:01:51.640Z,99.90
2023-04-09T16:04:20.072Z,99.90
2023-04-09T16:06:48.377Z,99.90
2023-04-09T16:09:18.163Z,99.90
2023-04-09T16:11:46.713Z,99.90
2023-04-09T16:14:15.108Z,99.90
2023-04-09T16:16:47.077Z,99.90
2023-04-09T16:19:15.940Z,99.90
2023-04-09T16:21:45.491Z,99.90
2023-04-09T16:24:15.541Z,99.90
2023-04-09T16:26:46.521Z,99.90
2023-04-09T16:29:20.735Z,99.90
2023-04-09T16:31:48.939Z,99.90
2023-04-09T16:34:17.282Z,99.90
2023-04-09T16:36:45.651Z,99.90
2023-04-09T16:39:15.331Z,99.90
2023-04-09T16:41:45.421Z,99.90
2023-04-09T16:44:13.946Z,99.90
2023-04-09T16:46:43.560Z,99.90
2023-04-09T16:49:11.780Z,99.90
2023-04-09T16:51:40.030Z,99.90
2023-04-09T16:54:08.430Z,99.90
2023-04-09T16:56:37.217Z,99.90
2023-04-09T16:59:09.913Z,99.90
2023-04-09T17:01:38.197Z,99.90
2023-04-09T17:04:07.063Z,99.90
2023-04-09T17:06:35.360Z,99.90
2023-04-09T17:09:05.380Z,99.90
2023-04-09T17:11:33.761Z,99.90
2023-04-09T17:14:02.170Z,99.90
2023-04-09T17:16:32.291Z,99.90
2023-04-09T17:19:00.844Z,99.90
2023-04-09T17:21:32.293Z,99.90
2023-04-09T17:24:02.817Z,99.90
2023-04-09T17:26:31.678Z,99.90
2023-04-09T17:28:59.973Z,99.90
2023-04-09T17:31:28.279Z,99.90
2023-04-09T17:33:58.042Z,99.90
2023-04-09T17:36:26.405Z,99.90
2023-04-09T17:38:56.663Z,99.90
2023-04-09T17:41:28.213Z,99.90
2023-04-09T17:43:56.482Z,99.90
2023-04-09T17:46:25.750Z,99.90
2023-04-09T17:48:54.344Z,99.90
2023-04-09T17:51:24.485Z,99.90
2023-04-09T17:53:57.553Z,99.90
2023-04-09T17:56:27.183Z,99.90
2023-04-09T17:58:56.544Z,99.90
2023-04-09T18:01:25.156Z,99.90
2023-04-09T18:03:53.767Z,99.90
2023-04-09T18:06:27.856Z,99.90
2023-04-09T18:08:56.144Z,99.90
2023-04-09T18:11:24.850Z,99.90
2023-04-09T18:13:53.099Z,99.90
2023-04-09T18:16:23.356Z,99.90
2023-04-09T18:18:52.119Z,99.90
2023-04-09T18:21:20.789Z,99.90
2023-04-09T18:23:50.676Z,99.90
2023-04-09T18:26:19.057Z,99.90
2023-04-09T18:28:50.601Z,99.90
2023-04-09T18:31:22.446Z,99.90
2023-04-09T18:33:51.419Z,99.90
2023-04-09T18:36:19.950Z,99.90
2023-04-09T18:38:49.988Z,99.90
2023-04-09T18:41:23.409Z,99.90
2023-04-09T18:43:54.547Z,99.90
2023-04-09T18:46:22.986Z,99.90
2023-04-09T18:48:51.748Z,99.90
2023-04-09T18:51:20.930Z,99.90
2023-04-09T18:53:54.065Z,99.90
2023-04-09T18:56:23.025Z,99.90
2023-04-09T18:58:52.034Z,99.90
2023-04-09T19:01:20.856Z,99.90
2023-04-09T19:03:49.310Z,99.90
2023-04-09T19:06:19.351Z,99.90
2023-04-09T19:08:57.248Z,99.90
2023-04-09T19:11:28.788Z,99.90
2023-04-09T19:14:02.192Z,99.90
2023-04-09T19:16:31.071Z,99.90
2023-04-09T19:19:02.313Z,99.90
2023-04-09T19:21:33.803Z,99.90
2023-04-09T19:24:06.024Z,99.90
2023-04-09T19:26:34.772Z,99.90
2023-04-09T19:29:03.749Z,99.90
2023-04-09T19:31:35.350Z,99.90
2023-04-09T19:34:03.656Z,99.90
2023-04-09T19:36:33.899Z,99.90
2023-04-09T19:39:03.572Z,99.90
2023-04-09T19:41:31.897Z,99.90
2023-04-09T19:44:07.482Z,99.90
2023-04-09T19:46:35.875Z,99.90
2023-04-09T19:49:04.248Z,99.90
2023-04-09T19:51:32.712Z,99.90
2023-04-09T19:54:01.045Z,99.90
2023-04-09T19:56:32.940Z,99.90
2023-04-09T19:59:02.285Z,99.90
2023-04-09T20:01:30.768Z,99.90
2023-04-09T20:03:59.690Z,99.90
2023-04-09T20:06:29.010Z,99.90
2023-04-09T20:08:57.439Z,99.90
2023-04-09T20:11:25.929Z,99.90
2023-04-09T20:13:57.317Z,99.90
2023-04-09T20:16:28.759Z,99.90
2023-04-09T20:18:57.082Z,99.90
2023-04-09T20:21:25.483Z,99.90
2023-04-09T20:23:53.832Z,99.90
2023-04-09T20:26:22.115Z,99.90
2023-04-09T20:28:50.501Z,99.90
2023-04-09T20:31:23.042Z,99.90
2023-04-09T20:33:51.526Z,99.90
2023-04-09T20:36:20.320Z,99.90
2023-04-09T20:38:49.729Z,99.90
2023-04-09T20:41:18.314Z,99.90
2023-04-09T20:43:46.954Z,99.90
2023-04-09T20:46:15.540Z,99.90
2023-04-09T20:48:48.085Z,99.90
2023-04-09T20:51:19.545Z,99.90
2023-04-09T20:53:48.126Z,99.90
2023-04-09T20:56:17.521Z,99.90
2023-04-09T20:58:51.885Z,99.90
2023-04-09T21:01:20.615Z,99.90
2023-04-09T21:03:51.028Z,99.90
2023-04-09T21:06:19.326Z,99.90
2023-04-09T21:08:47.730Z,99.90
2023-04-09T21:11:16.196Z,99.90
2023-04-09T21:13:53.764Z,99.90
2023-04-09T21:16:28.641Z,99.90
2023-04-09T21:18:58.490Z,99.90
2023-04-09T21:21:28.444Z,99.90
2023-04-09T21:23:56.712Z,99.90
2023-04-09T21:26:25.424Z,99.90
2023-04-09T21:28:53.897Z,99.90
2023-04-09T21:31:26.617Z,99.90
2023-04-09T21:33:57.579Z,99.90
2023-04-09T21:36:29.069Z,99.90
2023-04-09T21:38:57.415Z,99.90
2023-04-09T21:41:25.813Z,99.90
2023-04-09T21:43:54.066Z,99.90
2023-04-09T21:46:22.890Z,99.90
2023-04-09T21:48:51.406Z,99.90
2023-04-09T21:51:19.935Z,99.90
2023-04-09T21:53:49.798Z,99.90
2023-04-09T21:56:18.110Z,99.90
2023-04-09T21:58:47.518Z,99.90
2023-04-09T22:01:26.523Z,99.90
2023-04-09T22:04:03.754Z,99.90
2023-04-09T22:06:32.594Z,99.90
2023-04-09T22:09:05.701Z,99.90
2023-04-09T22:11:34.683Z,99.90
2023-04-09T22:14:07.052Z,99.90
2023-04-09T22:16:36.219Z,99.90
2023-04-09T22:19:04.609Z,99.90
2023-04-09T22:21:32.895Z,99.90
2023-04-09T22:24:02.606Z,99.90
2023-04-09T22:26:30.989Z,99.90
2023-04-09T22:28:59.368Z,99.90
2023-04-09T22:31:28.726Z,99.90
2023-04-09T22:33:58.669Z,99.90
2023-04-09T22:36:31.068Z,99.90
2023-04-09T22:38:59.319Z,99.90
2023-04-09T22:41:29.044Z,99.90
2023-04-09T22:43:57.686Z,99.90
2023-04-09T22:46:26.162Z,99.90
2023-04-09T22:49:04.427Z,99.90
2023-04-09T22:51:34.922Z,99.90
2023-04-09T22:54:03.313Z,99.90
2023-04-09T22:56:33.624Z,99.90
2023-04-09T22:59:02.256Z,99.90
2023-04-09T23:01:31.528Z,99.90
2023-04-09T23:03:59.908Z,99.90
2023-04-09T23:06:28.292Z,99.90
2023-04-09T23:08:56.552Z,99.90
2023-04-09T23:11:24.784Z,99.90
2023-04-09T23:13:54.613Z,99.90
2023-04-09T23:16:23.053Z,99.90
2023-04-09T23:18:51.525Z,99.90
2023-04-09T23:21:19.919Z,99.90
2023-04-09T23:23:48.192Z,99.90
2023-04-09T23:26:16.526Z,99.90
2023-04-09T23:28:44.864Z,99.90
2023-04-09T23:31:14.609Z,99.90
2023-04-09T23:33:43.388Z,99.90
2023-04-09T23:36:11.885Z,99.90
2023-04-09T23:38:41.076Z,99.90
2023-04-09T23:41:09.305Z,99.90
2023-04-09T23:43:37.553Z,99.90
2023-04-09T23:46:06.251Z,99.90
2023-04-09T23:48:36.250Z,99.90
2023-04-09T23:51:04.887Z,99.90
2023-04-09T23:53:33.144Z,99.90
2023-04-09T23:56:01.658Z,99.90
2023-04-09T23:58:30.137Z,99.90
